createdAt,value
2018-11-04T00:00:32.351Z,88.82
2018-11-04T00:03:01.920Z,88.79
2018-11-04T00:05:29.158Z,88.55
2018-11-04T00:07:58.377Z,88.15
2018-11-04T00:10:27.400Z,87.89
2018-11-04T00:12:54.820Z,88.80
2018-11-04T00:15:22.348Z,89.09
2018-11-04T00:17:50.967Z,89.88
2018-11-04T00:20:18.307Z,89.51
2018-11-04T00:22:48.775Z,88.44
2018-11-04T00:25:16.130Z,88.40
2018-11-04T00:27:43.458Z,88.87
2018-11-04T00:30:13.043Z,88.52
2018-11-04T00:32:45.885Z,88.25
2018-11-04T00:35:13.564Z,88.32
2018-11-04T00:37:43.033Z,88.95
2018-11-04T00:40:11.729Z,88.55
2018-11-04T00:42:39.630Z,89.06
2018-11-04T00:45:12.088Z,88.49
2018-11-04T00:47:45.492Z,89.03
2018-11-04T00:50:15.469Z,89.18
2018-11-04T00:52:43.448Z,88.76
2018-11-04T00:55:11.400Z,89.63
2018-11-04T00:57:39.060Z,89.08
2018-11-04T01:00:10.327Z,89.47
2018-11-04T01:02:39.998Z,89.35
2018-11-04T01:05:08.467Z,89.66
2018-11-04T01:07:37.036Z,89.70
2018-11-04T01:10:06.810Z,89.26
2018-11-04T01:12:36.508Z,89.41
2018-11-04T01:15:05.348Z,90.19
2018-11-04T01:17:33.156Z,89.05
2018-11-04T01:20:01.075Z,89.52
2018-11-04T01:22:28.819Z,88.70
2018-11-04T01:24:56.376Z,89.33
2018-11-04T01:27:23.821Z,89.75
2018-11-04T01:29:53.405Z,89.98
2018-11-04T01:32:21.012Z,89.90
2018-11-04T01:34:49.616Z,89.70
2018-11-04T01:37:18.171Z,89.58
2018-11-04T01:39:46.732Z,89.75
2018-11-04T01:42:14.202Z,90.50
2018-11-04T01:44:41.824Z,90.64
2018-11-04T01:47:11.507Z,90.58
2018-11-04T01:49:38.991Z,90.50
2018-11-04T01:52:07.220Z,90.53
2018-11-04T01:54:34.809Z,90.04
2018-11-04T01:57:03.544Z,90.07
2018-11-04T01:59:36.031Z,90.45
2018-11-04T02:02:03.665Z,90.07
2018-11-04T02:04:33.098Z,90.35
2018-11-04T02:07:00.872Z,90.94
2018-11-04T02:09:28.310Z,90.96
2018-11-04T02:11:55.528Z,91.58
2018-11-04T02:14:23.919Z,92.03
2018-11-04T02:16:51.800Z,92.92
2018-11-04T02:19:19.270Z,93.33
2018-11-04T02:21:47.050Z,94.29
2018-11-04T02:24:17.717Z,94.25
2018-11-04T02:26:48.183Z,93.95
2018-11-04T02:29:15.830Z,94.10
2018-11-04T02:31:44.406Z,94.24
2018-11-04T02:34:13.509Z,93.67
2018-11-04T02:36:44.235Z,93.19
2018-11-04T02:39:11.484Z,92.51
2018-11-04T02:41:40.285Z,91.74
2018-11-04T02:44:09.928Z,92.32
2018-11-04T02:46:37.182Z,92.08
2018-11-04T02:49:04.724Z,91.49
2018-11-04T02:51:33.150Z,90.98
2018-11-04T02:54:02.882Z,90.79
2018-11-04T02:56:32.501Z,91.49
2018-11-04T02:59:00.644Z,92.18
2018-11-04T03:01:28.037Z,92.40
2018-11-04T03:03:55.634Z,93.06
2018-11-04T03:06:23.128Z,92.67
2018-11-04T03:08:50.569Z,92.88
2018-11-04T03:11:20.176Z,93.93
2018-11-04T03:13:47.694Z,94.09
2018-11-04T03:16:15.130Z,94.53
2018-11-04T03:18:43.224Z,95.70
2018-11-04T03:21:14.147Z,95.96
2018-11-04T03:23:42.727Z,95.85
2018-11-04T03:26:12.466Z,96.23
2018-11-04T03:28:39.789Z,95.27
2018-11-04T03:31:07.379Z,95.56
2018-11-04T03:33:37.190Z,95.84
2018-11-04T03:36:07.822Z,96.30
2018-11-04T03:38:35.417Z,96.06
2018-11-04T03:41:02.671Z,96.63
2018-11-04T03:43:31.954Z,96.87
2018-11-04T03:46:00.432Z,96.98
2018-11-04T03:48:27.804Z,97.34
2018-11-04T03:50:56.585Z,96.82
2018-11-04T03:53:24.064Z,96.65
2018-11-04T03:55:51.389Z,96.23
2018-11-04T03:58:19.861Z,96.89
2018-11-04T04:00:48.058Z,96.71
2018-11-04T04:03:16.033Z,95.43
2018-11-04T04:05:43.592Z,95.15
2018-11-04T04:08:10.996Z,94.97
2018-11-04T04:10:38.793Z,95.20
2018-11-04T04:13:06.337Z,95.86
2018-11-04T04:15:35.964Z,95.32
2018-11-04T04:18:03.213Z,95.27
2018-11-04T04:20:32.810Z,94.78
2018-11-04T04:23:00.200Z,94.79
2018-11-04T04:25:27.655Z,94.20
2018-11-04T04:27:56.021Z,94.09
2018-11-04T04:30:23.309Z,93.31
2018-11-04T04:32:51.606Z,93.36
2018-11-04T04:35:19.752Z,93.24
2018-11-04T04:37:48.279Z,93.01
2018-11-04T04:40:18.659Z,92.56
2018-11-04T04:44:11.510Z,92.20
2018-11-04T04:46:40.094Z,92.65
2018-11-04T04:49:08.736Z,93.18
2018-11-04T04:51:36.646Z,93.20
2018-11-04T04:54:04.382Z,92.51
2018-11-04T04:56:32.944Z,92.73
2018-11-04T04:59:00.420Z,93.74
2018-11-04T05:01:29.061Z,93.01
2018-11-04T05:03:56.713Z,92.45
2018-11-04T05:07:54.956Z,92.83
2018-11-04T05:10:23.710Z,93.21
2018-11-04T05:12:52.666Z,92.68
2018-11-04T05:15:20.263Z,92.36
2018-11-04T05:17:48.326Z,92.64
2018-11-04T05:20:16.647Z,91.24
2018-11-04T05:22:44.071Z,92.04
2018-11-04T05:25:12.179Z,91.58
2018-11-04T05:27:40.796Z,91.93
2018-11-04T05:30:11.831Z,91.70
2018-11-04T05:32:40.417Z,91.49
2018-11-04T05:35:09.905Z,92.02
2018-11-04T05:37:39.219Z,91.31
2018-11-04T05:40:06.975Z,91.46
2018-11-04T05:42:36.591Z,91.83
2018-11-04T05:45:04.322Z,91.71
2018-11-04T05:47:32.125Z,92.12
2018-11-04T05:50:00.764Z,92.27
2018-11-04T05:52:28.104Z,91.52
2018-11-04T05:54:56.637Z,92.24
2018-11-04T05:57:23.903Z,91.91
2018-11-04T05:59:52.758Z,92.19
2018-11-04T06:02:20.368Z,91.44
2018-11-04T06:04:47.946Z,92.07
2018-11-04T06:07:15.542Z,92.83
2018-11-04T06:09:42.949Z,91.74
2018-11-04T06:12:11.099Z,91.97
2018-11-04T06:14:38.534Z,92.82
2018-11-04T06:17:05.891Z,93.05
2018-11-04T06:19:34.905Z,93.07
2018-11-04T06:22:03.041Z,92.60
2018-11-04T06:24:32.151Z,92.62
2018-11-04T06:26:59.512Z,92.33
2018-11-04T06:29:26.813Z,91.98
2018-11-04T06:31:55.587Z,92.45
2018-11-04T06:34:24.125Z,93.31
2018-11-04T06:36:51.650Z,92.77
2018-11-04T06:39:19.832Z,93.84
2018-11-04T06:41:47.383Z,93.58
2018-11-04T06:44:15.735Z,93.71
2018-11-04T06:46:43.295Z,93.85
2018-11-04T06:49:10.653Z,94.42
2018-11-04T06:51:38.451Z,94.44
2018-11-04T06:54:09.058Z,94.08
2018-11-04T06:56:36.596Z,94.54
2018-11-04T06:59:04.025Z,94.34
2018-11-04T07:01:31.430Z,93.91
2018-11-04T07:04:10.074Z,94.28
2018-11-04T07:06:37.885Z,94.43
2018-11-04T07:09:06.959Z,94.65
2018-11-04T07:11:35.916Z,93.53
2018-11-04T07:14:03.392Z,93.97
2018-11-04T07:16:30.884Z,93.29
2018-11-04T07:19:00.466Z,94.48
2018-11-04T07:21:28.586Z,94.68
2018-11-04T07:23:57.653Z,94.52
2018-11-04T07:26:25.323Z,94.73
2018-11-04T07:28:54.296Z,94.98
2018-11-04T07:31:23.428Z,94.19
2018-11-04T07:33:51.418Z,94.39
2018-11-04T07:36:18.849Z,93.85
2018-11-04T07:38:47.238Z,94.72
2018-11-04T07:41:16.140Z,95.54
2018-11-04T07:43:47.213Z,95.48
2018-11-04T07:46:15.026Z,96.16
2018-11-04T07:48:45.351Z,95.32
2018-11-04T07:51:13.831Z,95.34
2018-11-04T07:53:42.810Z,95.36
2018-11-04T07:56:10.232Z,95.38
2018-11-04T07:58:39.436Z,95.37
2018-11-04T08:01:15.379Z,96.04
2018-11-04T08:03:45.088Z,95.51
2018-11-04T08:06:12.607Z,95.41
2018-11-04T08:08:40.031Z,95.61
2018-11-04T08:11:07.811Z,95.93
2018-11-04T08:13:37.452Z,96.33
2018-11-04T08:16:05.544Z,96.04
2018-11-04T08:18:34.121Z,95.36
2018-11-04T08:21:01.624Z,97.08
2018-11-04T08:23:30.475Z,96.08
2018-11-04T08:25:59.059Z,96.68
2018-11-04T08:28:27.490Z,96.22
2018-11-04T08:30:54.973Z,96.16
2018-11-04T08:33:22.342Z,95.99
2018-11-04T08:35:51.973Z,96.61
2018-11-04T08:38:19.275Z,96.11
2018-11-04T08:40:49.443Z,96.56
2018-11-04T08:43:17.971Z,97.01
2018-11-04T08:45:47.746Z,96.91
2018-11-04T08:48:15.948Z,96.01
2018-11-04T08:50:43.446Z,94.21
2018-11-04T08:53:12.632Z,93.97
2018-11-04T08:55:39.995Z,95.22
2018-11-04T08:58:09.614Z,96.72
2018-11-04T09:00:39.054Z,96.47
2018-11-04T09:03:06.397Z,97.03
2018-11-04T09:05:36.021Z,96.40
2018-11-04T09:08:06.438Z,96.04
2018-11-04T09:10:34.086Z,95.97
2018-11-04T09:13:01.462Z,94.67
2018-11-04T09:15:30.661Z,94.75
2018-11-04T09:17:58.758Z,95.08
2018-11-04T09:20:26.340Z,94.25
2018-11-04T09:22:53.805Z,93.36
2018-11-04T09:25:22.492Z,92.70
2018-11-04T09:27:50.026Z,92.70
2018-11-04T09:30:17.502Z,91.85
2018-11-04T09:32:45.034Z,92.62
2018-11-04T09:35:14.148Z,92.98
2018-11-04T09:37:41.652Z,93.48
2018-11-04T09:40:10.735Z,92.93
2018-11-04T09:42:38.380Z,92.52
2018-11-04T09:45:06.918Z,92.01
2018-11-04T09:47:36.504Z,91.94
2018-11-04T09:50:04.697Z,92.37
2018-11-04T09:52:34.864Z,92.34
2018-11-04T09:55:02.357Z,91.70
2018-11-04T09:57:30.499Z,90.83
2018-11-04T09:59:59.070Z,89.96
2018-11-04T10:02:29.909Z,89.90
2018-11-04T10:04:57.378Z,91.03
2018-11-04T10:07:25.368Z,90.38
2018-11-04T10:09:53.274Z,90.83
2018-11-04T10:12:20.843Z,90.91
2018-11-04T10:14:50.407Z,91.06
2018-11-04T10:17:17.939Z,90.80
2018-11-04T10:19:46.846Z,90.67
2018-11-04T10:22:40.640Z,89.88
2018-11-04T10:25:10.326Z,89.50
2018-11-04T10:27:38.350Z,89.02
2018-11-04T10:30:13.199Z,87.95
2018-11-04T10:32:43.512Z,86.71
2018-11-04T10:35:12.380Z,86.81
2018-11-04T10:37:44.587Z,87.60
2018-11-04T10:40:14.179Z,88.57
2018-11-04T10:42:41.499Z,89.47
2018-11-04T10:45:14.612Z,89.15
2018-11-04T10:47:42.060Z,89.13
2018-11-04T10:50:10.540Z,88.65
2018-11-04T10:52:41.797Z,88.58
2018-11-04T10:55:11.289Z,87.90
2018-11-04T10:57:39.612Z,87.42
2018-11-04T11:00:14.187Z,87.19
2018-11-04T11:02:41.641Z,86.67
2018-11-04T11:05:09.130Z,85.68
2018-11-04T11:07:37.068Z,84.25
2018-11-04T11:10:07.839Z,84.74
2018-11-04T11:12:36.705Z,83.41
2018-11-04T11:15:05.323Z,83.11
2018-11-04T11:17:34.051Z,84.89
2018-11-04T11:20:04.576Z,84.42
2018-11-04T11:22:33.998Z,84.00
2018-11-04T11:25:01.451Z,83.11
2018-11-04T11:27:30.004Z,83.24
2018-11-04T11:29:58.747Z,83.45
2018-11-04T11:32:26.504Z,83.16
2018-11-04T11:34:53.883Z,82.93
2018-11-04T11:37:23.107Z,82.41
2018-11-04T11:39:52.084Z,82.74
2018-11-04T11:42:20.373Z,82.29
2018-11-04T11:44:49.673Z,82.09
2018-11-04T11:47:17.234Z,81.11
2018-11-04T11:49:45.329Z,81.75
2018-11-04T11:52:12.985Z,82.42
2018-11-04T11:54:40.300Z,80.76
2018-11-04T11:57:07.841Z,81.40
2018-11-04T11:59:37.640Z,79.38
2018-11-04T12:02:05.070Z,80.04
2018-11-04T12:04:32.778Z,81.90
2018-11-04T12:07:04.908Z,81.85
2018-11-04T12:09:37.279Z,81.23
2018-11-04T12:12:06.600Z,79.79
2018-11-04T12:14:34.762Z,80.04
2018-11-04T12:17:04.608Z,80.41
2018-11-04T12:19:32.955Z,80.22
2018-11-04T12:22:01.767Z,80.90
2018-11-04T12:24:30.937Z,79.63
2018-11-04T12:27:01.871Z,79.33
2018-11-04T12:29:30.634Z,77.94
2018-11-04T12:32:00.341Z,78.58
2018-11-04T12:34:29.895Z,79.08
2018-11-04T12:36:58.214Z,80.10
2018-11-04T12:40:50.123Z,79.39
2018-11-04T12:43:19.509Z,80.41
2018-11-04T12:45:49.795Z,80.50
2018-11-04T12:48:19.291Z,79.23
2018-11-04T12:50:48.090Z,78.66
2018-11-04T12:53:15.582Z,78.14
2018-11-04T12:55:43.136Z,76.63
2018-11-04T12:58:13.163Z,75.08
2018-11-04T13:00:41.600Z,76.42
2018-11-04T13:03:09.274Z,77.10
2018-11-04T13:05:36.913Z,75.93
2018-11-04T13:08:04.810Z,75.16
2018-11-04T13:10:32.270Z,74.34
2018-11-04T13:12:59.946Z,75.68
2018-11-04T13:15:28.117Z,75.64
2018-11-04T13:17:55.629Z,75.24
2018-11-04T13:20:23.397Z,73.77
2018-11-04T13:22:50.849Z,73.71
2018-11-04T13:25:18.239Z,73.95
2018-11-04T13:27:45.772Z,73.27
2018-11-04T13:30:14.780Z,72.78
2018-11-04T13:32:42.339Z,73.67
2018-11-04T13:35:11.991Z,75.18
2018-11-04T13:37:39.732Z,75.58
2018-11-04T13:40:08.506Z,77.50
2018-11-04T13:42:36.052Z,77.65
2018-11-04T13:45:03.556Z,76.91
2018-11-04T13:47:31.580Z,77.53
2018-11-04T13:50:00.001Z,76.49
2018-11-04T13:52:27.544Z,76.75
2018-11-04T13:54:55.817Z,76.20
2018-11-04T13:57:25.424Z,75.12
2018-11-04T13:59:52.882Z,74.66
2018-11-04T14:02:20.241Z,74.64
2018-11-04T14:04:48.456Z,74.31
2018-11-04T14:07:16.723Z,77.28
2018-11-04T14:09:46.480Z,78.78
2018-11-04T14:12:17.814Z,78.75
2018-11-04T14:14:45.251Z,78.68
2018-11-04T14:17:15.500Z,82.08
2018-11-04T14:19:45.936Z,84.11
2018-11-04T14:22:13.444Z,84.72
2018-11-04T14:24:42.004Z,84.69
2018-11-04T14:27:09.667Z,84.38
2018-11-04T14:29:37.740Z,85.12
2018-11-04T14:32:05.473Z,84.65
2018-11-04T14:34:35.049Z,83.32
2018-11-04T14:37:02.600Z,83.36
2018-11-04T14:39:30.673Z,83.67
2018-11-04T14:42:01.920Z,85.53
2018-11-04T14:44:32.216Z,86.35
2018-11-04T14:46:59.740Z,85.98
2018-11-04T14:49:31.085Z,84.79
2018-11-04T14:51:58.787Z,85.47
2018-11-04T14:54:27.151Z,85.11
2018-11-04T14:56:55.725Z,87.48
2018-11-04T14:59:23.385Z,88.54
2018-11-04T15:01:51.279Z,88.45
2018-11-04T15:04:20.138Z,87.04
2018-11-04T15:06:47.594Z,87.79
2018-11-04T15:09:15.117Z,87.05
2018-11-04T15:11:45.129Z,87.14
2018-11-04T15:14:13.778Z,87.29
2018-11-04T15:16:42.139Z,86.72
2018-11-04T15:19:10.086Z,86.73
2018-11-04T15:21:42.660Z,86.46
2018-11-04T15:24:17.234Z,86.32
2018-11-04T15:26:46.368Z,86.84
2018-11-04T15:29:16.970Z,86.43
2018-11-04T15:31:47.801Z,86.39
2018-11-04T15:34:15.367Z,87.71
2018-11-04T15:36:42.926Z,88.58
2018-11-04T15:39:13.787Z,90.06
2018-11-04T15:41:41.504Z,90.62
2018-11-04T15:44:14.107Z,89.69
2018-11-04T15:46:41.947Z,89.83
2018-11-04T15:49:11.342Z,89.22
2018-11-04T15:51:39.544Z,88.76
2018-11-04T15:54:07.787Z,89.29
2018-11-04T15:56:35.502Z,89.45
2018-11-04T15:59:03.134Z,90.12
2018-11-04T16:01:30.611Z,90.89
2018-11-04T16:03:59.337Z,91.86
2018-11-04T16:06:26.889Z,91.76
2018-11-04T16:08:54.352Z,92.04
2018-11-04T16:11:23.475Z,92.17
2018-11-04T16:13:51.416Z,92.00
2018-11-04T16:16:19.304Z,92.93
2018-11-04T16:18:47.375Z,93.14
2018-11-04T16:21:16.330Z,92.18
2018-11-04T16:23:43.928Z,92.55
2018-11-04T16:26:11.372Z,91.56
2018-11-04T16:28:42.774Z,90.95
2018-11-04T16:31:10.832Z,91.34
2018-11-04T16:33:41.462Z,91.12
2018-11-04T16:36:09.243Z,91.14
2018-11-04T16:38:36.950Z,91.20
2018-11-04T16:41:07.334Z,90.93
2018-11-04T16:43:34.886Z,90.35
2018-11-04T16:46:03.693Z,90.60
2018-11-04T16:48:35.864Z,91.82
2018-11-04T16:51:03.896Z,92.04
2018-11-04T16:53:31.927Z,91.35
2018-11-04T16:55:59.584Z,91.46
2018-11-04T16:58:27.724Z,91.67
2018-11-04T17:00:55.319Z,92.21
2018-11-04T17:03:23.742Z,93.32
2018-11-04T17:05:53.990Z,94.90
2018-11-04T17:08:21.431Z,96.32
2018-11-04T17:10:51.076Z,96.28
2018-11-04T17:13:19.315Z,95.47
2018-11-04T17:15:46.784Z,95.56
2018-11-04T17:18:14.393Z,95.97
2018-11-04T17:20:42.583Z,96.34
2018-11-04T17:23:12.949Z,96.23
2018-11-04T17:25:40.415Z,96.20
2018-11-04T17:28:09.104Z,96.84
2018-11-04T17:30:36.579Z,96.16
2018-11-04T17:33:05.097Z,96.31
2018-11-04T17:35:33.362Z,95.35
2018-11-04T17:38:00.925Z,96.05
2018-11-04T17:40:28.657Z,96.68
2018-11-04T17:42:55.989Z,97.73
2018-11-04T17:45:23.857Z,97.63
2018-11-04T17:47:52.702Z,97.08
2018-11-04T17:50:22.537Z,96.58
2018-11-04T17:52:49.958Z,96.71
2018-11-04T17:55:19.480Z,97.11
2018-11-04T17:57:49.407Z,96.84
2018-11-04T18:00:23.948Z,96.97
2018-11-04T18:03:04.925Z,97.88
2018-11-04T18:05:34.855Z,98.36
2018-11-04T18:08:02.314Z,98.31
2018-11-04T18:10:30.045Z,97.04
2018-11-04T18:12:59.758Z,96.91
2018-11-04T18:15:27.968Z,96.25
2018-11-04T18:17:56.407Z,96.59
2018-11-04T18:20:25.541Z,97.40
2018-11-04T18:22:54.469Z,97.04
2018-11-04T18:25:22.955Z,97.74
2018-11-04T18:27:50.348Z,98.51
2018-11-04T18:30:21.428Z,99.74
2018-11-04T18:32:49.936Z,99.32
2018-11-04T18:35:17.514Z,99.34
2018-11-04T18:37:45.086Z,98.33
2018-11-04T18:40:14.427Z,98.10
2018-11-04T18:42:42.178Z,98.17
2018-11-04T18:45:14.194Z,98.42
2018-11-04T18:47:41.573Z,98.42
2018-11-04T18:50:13.046Z,98.36
2018-11-04T18:52:41.494Z,99.02
2018-11-04T18:55:10.050Z,97.74
2018-11-04T18:57:37.680Z,98.86
2018-11-04T19:00:10.888Z,98.59
2018-11-04T19:02:46.376Z,98.93
2018-11-04T19:05:35.317Z,99.15
2018-11-04T19:08:03.877Z,99.07
2018-11-04T19:10:38.849Z,99.22
2018-11-04T19:13:13.037Z,98.53
2018-11-04T19:16:08.536Z,98.93
2018-11-04T19:18:36.641Z,99.62
2018-11-04T19:21:09.172Z,99.35
2018-11-04T19:23:36.672Z,98.71
2018-11-04T19:26:07.967Z,98.67
2018-11-04T19:28:35.531Z,99.42
2018-11-04T19:31:02.780Z,99.45
2018-11-04T19:33:30.259Z,99.49
2018-11-04T19:35:58.340Z,99.49
2018-11-04T19:38:26.733Z,99.79
2018-11-04T19:40:54.947Z,99.43
2018-11-04T19:43:22.900Z,98.81
2018-11-04T19:45:59.226Z,98.34
2018-11-04T19:48:27.822Z,99.34
2018-11-04T19:51:00.426Z,99.89
2018-11-04T19:53:53.472Z,100.00
2018-11-04T19:56:24.652Z,99.72
2018-11-04T19:58:52.349Z,99.13
2018-11-04T20:01:21.051Z,98.72
2018-11-04T20:03:51.334Z,98.93
2018-11-04T20:06:33.588Z,99.21
2018-11-04T20:09:09.280Z,97.87
2018-11-04T20:11:36.941Z,98.07
2018-11-04T20:14:12.953Z,97.94
2018-11-04T20:16:41.843Z,97.91
2018-11-04T20:19:15.625Z,98.96
2018-11-04T20:21:44.916Z,99.39
2018-11-04T20:24:23.051Z,97.90
2018-11-04T20:26:51.482Z,98.08
2018-11-04T20:29:19.798Z,98.76
2018-11-04T20:31:53.439Z,99.05
2018-11-04T20:34:30.097Z,98.58
2018-11-04T20:37:16.242Z,97.98
2018-11-04T20:39:50.064Z,97.57
2018-11-04T20:42:20.500Z,97.97
2018-11-04T20:45:04.957Z,98.47
2018-11-04T20:47:41.697Z,97.36
2018-11-04T20:50:19.041Z,97.24
2018-11-04T20:52:47.607Z,97.59
2018-11-04T20:55:31.802Z,96.70
2018-11-04T20:57:59.345Z,96.54
2018-11-04T21:00:35.917Z,96.85
2018-11-04T21:03:04.009Z,97.41
2018-11-04T21:05:31.339Z,96.79
2018-11-04T21:08:03.513Z,96.44
2018-11-04T21:10:36.277Z,96.62
2018-11-04T21:13:03.642Z,96.02
2018-11-04T21:15:35.963Z,96.65
2018-11-04T21:18:06.951Z,95.95
2018-11-04T21:20:44.796Z,95.31
2018-11-04T21:23:13.057Z,94.70
2018-11-04T21:25:43.222Z,94.94
2018-11-04T21:28:12.770Z,94.73
2018-11-04T21:30:40.882Z,95.26
2018-11-04T21:33:09.962Z,94.74
2018-11-04T21:35:38.293Z,95.07
2018-11-04T21:38:05.938Z,94.39
2018-11-04T21:40:39.352Z,94.01
2018-11-04T21:43:08.045Z,94.91
2018-11-04T21:45:37.710Z,95.22
2018-11-04T21:48:09.695Z,95.27
2018-11-04T21:50:38.552Z,95.47
2018-11-04T21:53:06.077Z,94.91
2018-11-04T21:55:33.668Z,94.32
2018-11-04T21:58:00.976Z,93.62
2018-11-04T22:00:31.242Z,94.11
2018-11-04T22:02:59.159Z,93.46
2018-11-04T22:05:26.666Z,94.74
2018-11-04T22:07:55.047Z,95.79
2018-11-04T22:10:22.582Z,95.01
2018-11-04T22:12:52.258Z,96.62
2018-11-04T22:15:20.126Z,96.05
2018-11-04T22:17:48.723Z,95.94
2018-11-04T22:20:17.162Z,95.88
2018-11-04T22:22:46.780Z,95.03
2018-11-04T22:25:14.799Z,94.63
2018-11-04T22:27:45.033Z,94.22
2018-11-04T22:30:12.958Z,94.55
2018-11-04T22:32:41.097Z,94.92
2018-11-04T22:35:10.251Z,95.01
2018-11-04T22:37:38.374Z,94.87
2018-11-04T22:40:08.568Z,95.23
2018-11-04T22:42:37.207Z,96.36
2018-11-04T22:45:13.502Z,96.21
2018-11-04T22:47:42.538Z,95.72
2018-11-04T22:50:15.097Z,95.95
2018-11-04T22:52:42.914Z,95.89
2018-11-04T22:55:11.724Z,95.94
2018-11-04T22:58:01.172Z,96.39
2018-11-04T23:00:34.750Z,96.81
2018-11-04T23:03:02.365Z,97.97
2018-11-04T23:05:30.537Z,99.21
2018-11-04T23:07:57.828Z,99.58
2018-11-04T23:10:25.949Z,99.30
2018-11-04T23:12:53.943Z,98.19
2018-11-04T23:15:21.276Z,97.53
2018-11-04T23:17:48.638Z,97.53
2018-11-04T23:20:16.038Z,96.90
2018-11-04T23:22:44.204Z,96.55
2018-11-04T23:25:13.128Z,96.55
2018-11-04T23:27:41.496Z,96.55
2018-11-04T23:30:10.905Z,96.00
2018-11-04T23:32:39.143Z,95.81
2018-11-04T23:35:09.613Z,96.56
2018-11-04T23:37:37.147Z,96.25
2018-11-04T23:40:04.996Z,96.26
2018-11-04T23:42:33.297Z,97.18
2018-11-04T23:45:00.691Z,97.19
2018-11-04T23:47:28.081Z,98.27
2018-11-04T23:49:55.552Z,99.44
2018-11-04T23:52:24.135Z,99.51
2018-11-04T23:54:51.631Z,100.00
2018-11-04T23:57:21.684Z,100.00
2018-11-04T23:59:51.796Z,100.00
